Time;durP1;ratioP1;P1;durP2;ratioP2;P2;SDS_P1;SDS_P2;PMS_P1;PMS_P2;Temp;Humidity;BMP_temperature;BMP_pressure;BME280_temperature;BME280_humidity;BME280_pressure;Samples;Min_cycle;Max_cycle;Signal;HPM_P1;HPM_P2
2022/06/09 00:00:24;;;;;;;2.55;2.20;;;19.80;99.90;;;;;;5033440;28;20172;-72
2022/06/09 00:02:53;;;;;;;2.80;2.25;;;19.80;99.90;;;;;;5035680;28;20303;-72
2022/06/09 00:05:19;;;;;;;3.35;2.10;;;19.80;99.90;;;;;;5033351;28;20191;-72
2022/06/09 00:07:46;;;;;;;3.45;2.10;;;19.70;99.90;;;;;;5033659;28;20173;-71
2022/06/09 00:10:18;;;;;;;3.58;2.33;;;19.60;99.90;;;;;;5033384;28;20259;-71
2022/06/09 00:12:44;;;;;;;2.10;1.88;;;19.60;99.90;;;;;;5032777;28;20188;-71
2022/06/09 00:15:13;;;;;;;2.78;2.22;;;19.50;99.90;;;;;;5032100;28;20238;-71
2022/06/09 00:17:39;;;;;;;3.38;2.15;;;19.40;99.90;;;;;;5031995;28;20251;-72
2022/06/09 00:20:06;;;;;;;4.15;2.72;;;19.40;99.90;;;;;;5033160;28;20231;-72
2022/06/09 00:22:31;;;;;;;3.10;2.28;;;19.40;99.90;;;;;;5033220;28;20201;-71
2022/06/09 00:24:57;;;;;;;2.92;2.30;;;19.40;99.90;;;;;;5032094;28;20219;-71
2022/06/09 00:27:23;;;;;;;4.00;2.63;;;19.30;99.90;;;;;;5033100;28;20157;-72
2022/06/09 00:29:49;;;;;;;5.03;2.70;;;19.30;99.90;;;;;;5032301;28;20284;-72
2022/06/09 00:32:14;;;;;;;4.05;2.50;;;19.20;99.90;;;;;;5033194;28;20193;-72
2022/06/09 00:34:40;;;;;;;3.35;2.60;;;19.10;99.90;;;;;;5033578;28;20200;-72
2022/06/09 00:37:06;;;;;;;3.63;2.20;;;19.10;99.90;;;;;;5033090;28;20211;-73
2022/06/09 00:39:31;;;;;;;2.20;2.00;;;19.10;99.90;;;;;;5033061;28;20176;-72
2022/06/09 00:41:57;;;;;;;3.30;2.20;;;19.10;99.90;;;;;;5033143;28;20227;-71
2022/06/09 00:44:26;;;;;;;2.55;1.95;;;19.00;99.90;;;;;;5034003;28;20211;-71
2022/06/09 00:47:02;;;;;;;3.63;1.63;;;18.80;99.90;;;;;;5035390;28;20259;-70
2022/06/09 00:49:37;;;;;;;1.98;1.75;;;18.90;99.90;;;;;;5035188;28;20181;-71
2022/06/09 00:52:06;;;;;;;2.30;1.80;;;18.90;99.90;;;;;;5036140;28;20196;-71
2022/06/09 00:54:36;;;;;;;3.08;1.67;;;18.80;99.90;;;;;;5036331;28;20252;-72
2022/06/09 00:57:11;;;;;;;2.33;1.80;;;18.70;99.90;;;;;;5036370;28;20590;-70
2022/06/09 00:59:39;;;;;;;4.28;1.90;;;18.60;99.90;;;;;;5036725;28;20172;-72
2022/06/09 01:02:08;;;;;;;1.73;1.63;;;18.50;99.90;;;;;;5036677;28;20251;-71
2022/06/09 01:04:34;;;;;;;2.53;1.80;;;18.40;99.90;;;;;;5037063;28;20244;-71
2022/06/09 01:07:10;;;;;;;2.72;1.67;;;18.40;99.90;;;;;;5036206;28;20173;-70
2022/06/09 01:09:36;;;;;;;2.33;1.65;;;18.50;99.90;;;;;;5036310;28;20168;-71
2022/06/09 01:12:20;;;;;;;2.55;1.70;;;18.30;99.90;;;;;;5035744;28;20551;-72
2022/06/09 01:14:46;;;;;;;3.58;1.80;;;18.30;99.90;;;;;;5036107;28;20188;-72
2022/06/09 01:17:19;;;;;;;2.90;1.30;;;18.20;99.90;;;;;;5035797;28;20594;-71
2022/06/09 01:20:05;;;;;;;1.95;1.70;;;18.10;99.90;;;;;;5036273;28;20195;-71
2022/06/09 01:22:50;;;;;;;4.38;1.90;;;18.00;99.90;;;;;;5035861;28;20173;-71
2022/06/09 01:26:02;;;;;;;3.88;1.63;;;18.10;99.90;;;;;;5035873;28;20215;-71
2022/06/09 01:28:51;;;;;;;3.35;1.95;;;18.00;99.90;;;;;;5036315;28;20217;-72
2022/06/09 01:31:43;;;;;;;1.67;1.55;;;18.00;99.90;;;;;;5015711;28;20212;-72
2022/06/09 01:34:30;;;;;;;1.92;1.45;;;17.90;99.90;;;;;;5037406;28;20237;-71
2022/06/09 01:37:11;;;;;;;2.47;1.70;;;17.90;99.90;;;;;;5040917;28;20509;-72
2022/06/09 01:39:47;;;;;;;2.15;1.80;;;17.90;99.90;;;;;;5046931;28;20167;-72
2022/06/09 01:42:25;;;;;;;2.97;1.80;;;17.90;99.90;;;;;;5047306;28;20176;-71
2022/06/09 01:44:53;;;;;;;2.42;1.60;;;17.80;99.90;;;;;;5037406;28;20165;-71
2022/06/09 01:47:22;;;;;;;2.50;2.05;;;17.80;99.90;;;;;;5035966;28;20310;-70
2022/06/09 01:49:54;;;;;;;4.57;1.50;;;17.70;99.90;;;;;;5036067;28;20165;-71
2022/06/09 01:52:21;;;;;;;2.05;1.50;;;17.60;99.90;;;;;;5035476;28;20193;-71
2022/06/09 01:54:49;;;;;;;2.28;1.50;;;17.60;99.90;;;;;;5034033;28;20159;-71
2022/06/09 01:57:19;;;;;;;3.80;1.60;;;17.70;99.90;;;;;;5035161;28;20601;-72
2022/06/09 02:00:12;;;;;;;5.03;1.67;;;17.70;99.90;;;;;;5035559;28;20655;-71
2022/06/09 02:02:47;;;;;;;2.05;1.63;;;17.70;99.90;;;;;;5032357;28;20204;-71
2022/06/09 02:05:21;;;;;;;3.03;1.63;;;17.60;99.90;;;;;;5034921;28;20189;-71
2022/06/09 02:07:49;;;;;;;4.65;1.60;;;17.50;99.90;;;;;;5034655;28;20163;-71
2022/06/09 02:10:19;;;;;;;4.10;1.67;;;17.60;99.90;;;;;;5034847;28;20553;-71
2022/06/09 02:12:47;;;;;;;2.40;1.33;;;17.60;99.90;;;;;;5035148;28;20239;-70
2022/06/09 02:15:21;;;;;;;3.72;1.70;;;17.60;99.90;;;;;;5034531;28;20161;-71
2022/06/09 02:17:49;;;;;;;1.83;1.33;;;17.60;99.90;;;;;;5034493;28;20160;-71
2022/06/09 02:20:18;;;;;;;2.83;1.30;;;17.60;99.90;;;;;;5034560;28;20232;-70
2022/06/09 02:22:43;;;;;;;3.33;1.50;;;17.70;99.90;;;;;;5034365;28;20183;-71
2022/06/09 02:25:09;;;;;;;1.77;1.55;;;17.70;99.90;;;;;;5035140;28;20649;-71
2022/06/09 02:27:35;;;;;;;2.95;1.33;;;17.70;99.90;;;;;;5034863;28;20161;-71
2022/06/09 02:30:00;;;;;;;1.35;1.25;;;17.70;99.90;;;;;;5034888;28;20211;-71
2022/06/09 02:32:26;;;;;;;4.50;1.50;;;17.70;99.90;;;;;;5035087;28;20629;-71
2022/06/09 02:34:52;;;;;;;4.63;1.70;;;17.70;99.90;;;;;;5035203;28;20172;-71
2022/06/09 02:37:17;;;;;;;1.67;1.40;;;17.70;99.90;;;;;;5034927;28;20157;-70
2022/06/09 02:39:43;;;;;;;2.65;1.60;;;17.70;99.90;;;;;;5034445;28;20211;-71
2022/06/09 02:42:08;;;;;;;3.53;1.65;;;17.70;99.90;;;;;;5034434;28;20188;-70
2022/06/09 02:44:35;;;;;;;3.70;1.38;;;17.70;99.90;;;;;;5035055;28;20167;-72
2022/06/09 02:47:00;;;;;;;1.98;1.30;;;17.70;99.90;;;;;;5034093;28;20536;-71
2022/06/09 02:49:26;;;;;;;2.83;1.48;;;17.80;99.90;;;;;;5034306;28;20161;-70
2022/06/09 02:51:54;;;;;;;2.00;1.40;;;17.90;99.90;;;;;;5034556;28;20291;-70
2022/06/09 02:54:21;;;;;;;1.45;1.20;;;17.80;99.90;;;;;;5034284;28;20597;-71
2022/06/09 02:56:47;;;;;;;1.77;1.27;;;17.90;99.90;;;;;;5032858;28;20268;-71
2022/06/09 02:59:12;;;;;;;2.78;1.58;;;17.80;99.90;;;;;;5034237;28;20215;-72
2022/06/09 03:01:39;;;;;;;1.73;1.30;;;17.80;99.90;;;;;;5034077;28;20172;-70
2022/06/09 03:04:06;;;;;;;1.63;1.40;;;17.80;99.90;;;;;;5034391;28;20232;-71
2022/06/09 03:06:32;;;;;;;2.33;1.30;;;17.80;99.90;;;;;;5033862;28;20515;-71
2022/06/09 03:08:58;;;;;;;1.00;1.00;;;17.80;99.90;;;;;;5034559;28;20194;-71
2022/06/09 03:11:25;;;;;;;3.10;1.23;;;17.80;99.90;;;;;;5033803;28;20204;-72
2022/06/09 03:13:50;;;;;;;1.80;1.30;;;17.80;99.90;;;;;;5033827;28;20548;-71
2022/06/09 03:16:17;;;;;;;1.58;1.10;;;17.80;99.90;;;;;;5029163;28;20299;-71
2022/06/09 03:18:44;;;;;;;1.60;1.38;;;17.90;99.90;;;;;;5034590;28;20176;-72
2022/06/09 03:21:11;;;;;;;1.20;1.10;;;17.90;99.90;;;;;;5035662;28;20608;-70
2022/06/09 03:23:37;;;;;;;3.88;1.30;;;17.90;99.90;;;;;;5034660;28;20180;-71
2022/06/09 03:26:03;;;;;;;1.38;1.15;;;17.90;99.90;;;;;;5034774;28;20161;-71
2022/06/09 03:28:29;;;;;;;2.05;1.20;;;17.90;99.90;;;;;;5035615;28;20165;-70
2022/06/09 03:30:59;;;;;;;4.20;1.30;;;17.80;99.90;;;;;;5037199;28;20216;-72
2022/06/09 03:33:24;;;;;;;3.90;1.30;;;17.80;99.90;;;;;;5040475;28;20175;-71
2022/06/09 03:35:50;;;;;;;3.25;1.48;;;17.80;99.90;;;;;;5045322;28;20589;-71
2022/06/09 03:38:16;;;;;;;2.17;1.40;;;17.80;99.90;;;;;;5044966;28;20161;-71
2022/06/09 03:40:42;;;;;;;3.72;1.27;;;17.80;99.90;;;;;;5046224;28;20165;-72
2022/06/09 03:43:08;;;;;;;1.63;1.40;;;17.80;99.90;;;;;;5037947;28;20201;-70
2022/06/09 03:45:34;;;;;;;6.47;1.40;;;17.70;99.90;;;;;;5033589;28;20613;-71
2022/06/09 03:48:00;;;;;;;2.63;1.30;;;17.70;99.90;;;;;;5033469;28;20169;-70
2022/06/09 03:50:28;;;;;;;2.08;1.23;;;17.70;99.90;;;;;;5033548;28;20223;-72
2022/06/09 03:52:54;;;;;;;4.78;1.17;;;17.90;99.90;;;;;;5033292;28;20540;-71
2022/06/09 03:55:20;;;;;;;2.55;1.20;;;17.80;99.90;;;;;;5033061;28;20513;-71
2022/06/09 03:57:46;;;;;;;2.47;1.10;;;17.70;99.90;;;;;;5035813;28;20165;-70
2022/06/09 04:00:16;;;;;;;2.85;1.27;;;17.70;99.90;;;;;;5044509;28;20169;-71
2022/06/09 04:02:42;;;;;;;2.30;1.20;;;17.70;99.90;;;;;;5045071;28;20184;-71
2022/06/09 04:05:08;;;;;;;7.15;1.30;;;17.70;99.90;;;;;;5045571;28;20173;-71
2022/06/09 04:07:34;;;;;;;7.45;1.48;;;17.70;99.90;;;;;;5038870;28;20188;-71
2022/06/09 04:09:59;;;;;;;1.10;1.00;;;17.70;99.90;;;;;;5041581;28;20165;-70
2022/06/09 04:12:25;;;;;;;2.28;1.50;;;17.70;99.90;;;;;;5035072;28;20250;-70
2022/06/09 04:14:51;;;;;;;4.28;1.40;;;17.60;99.90;;;;;;5034414;28;20184;-71
2022/06/09 04:17:17;;;;;;;3.33;1.13;;;17.60;99.90;;;;;;5034308;28;20173;-71
2022/06/09 04:19:43;;;;;;;2.67;1.13;;;17.60;99.90;;;;;;5037902;28;20490;-70
2022/06/09 04:22:08;;;;;;;2.60;1.40;;;17.60;99.90;;;;;;5037842;28;20176;-72
2022/06/09 04:24:34;;;;;;;2.50;1.40;;;17.60;99.90;;;;;;5038539;28;20597;-72
2022/06/09 04:27:00;;;;;;;2.13;1.33;;;17.70;99.90;;;;;;5038902;28;20311;-71
2022/06/09 04:29:27;;;;;;;1.75;1.30;;;17.70;99.90;;;;;;5037343;28;20171;-71
2022/06/09 04:31:53;;;;;;;3.03;1.10;;;17.90;99.90;;;;;;5037195;28;20208;-71
2022/06/09 04:34:19;;;;;;;3.45;1.27;;;17.80;99.90;;;;;;5037050;28;20515;-71
2022/06/09 04:36:45;;;;;;;1.92;1.30;;;17.70;99.90;;;;;;5035738;28;20184;-71
2022/06/09 04:39:10;;;;;;;3.65;1.38;;;17.70;99.90;;;;;;5036655;28;20255;-71
2022/06/09 04:41:37;;;;;;;1.50;1.40;;;17.70;99.90;;;;;;5036746;28;20593;-72
2022/06/09 04:44:04;;;;;;;2.97;1.05;;;17.80;99.90;;;;;;5036777;28;20165;-71
2022/06/09 04:46:30;;;;;;;3.25;1.27;;;17.80;99.90;;;;;;5036227;28;20184;-70
2022/06/09 04:48:55;;;;;;;1.98;1.10;;;17.80;99.90;;;;;;5036328;28;20215;-70
2022/06/09 04:51:23;;;;;;;2.95;1.30;;;17.80;99.90;;;;;;5036558;28;20554;-72
2022/06/09 04:53:49;;;;;;;2.55;1.35;;;17.80;99.90;;;;;;5036547;28;20620;-71
2022/06/09 04:56:17;;;;;;;3.55;1.42;;;17.80;99.90;;;;;;5036154;28;20206;-71
2022/06/09 04:58:43;;;;;;;2.75;1.45;;;17.80;99.90;;;;;;5036125;28;20625;-70
2022/06/09 05:01:24;;;;;;;1.88;1.23;;;17.70;99.90;;;;;;5036615;28;20201;-70
2022/06/09 05:03:50;;;;;;;5.25;1.30;;;17.80;99.90;;;;;;5036452;28;20282;-72
2022/06/09 05:06:21;;;;;;;2.40;1.20;;;17.80;99.90;;;;;;5036365;28;20177;-70
2022/06/09 05:08:48;;;;;;;2.47;1.30;;;17.70;99.90;;;;;;5036168;28;20168;-71
2022/06/09 05:11:14;;;;;;;2.83;1.17;;;17.70;99.90;;;;;;5036573;28;20645;-71
2022/06/09 05:13:39;;;;;;;2.22;1.15;;;17.80;99.90;;;;;;5036938;28;20497;-72
2022/06/09 05:16:05;;;;;;;3.20;1.10;;;17.60;99.90;;;;;;5036893;28;20161;-70
2022/06/09 05:18:32;;;;;;;3.90;1.63;;;17.60;99.90;;;;;;5035948;28;20197;-70
2022/06/09 05:20:59;;;;;;;2.63;1.38;;;17.70;99.90;;;;;;5036787;28;20196;-70
2022/06/09 05:23:25;;;;;;;2.17;1.27;;;17.80;99.90;;;;;;5035893;28;20589;-70
2022/06/09 05:25:53;;;;;;;1.92;1.35;;;17.80;99.90;;;;;;5034974;28;20224;-72
2022/06/09 05:28:20;;;;;;;2.15;1.40;;;17.80;99.90;;;;;;5035759;28;20330;-71
2022/06/09 05:30:46;;;;;;;3.53;1.30;;;17.80;99.90;;;;;;5034103;28;20215;-69
2022/06/09 05:33:12;;;;;;;2.63;1.30;;;17.80;99.90;;;;;;5035607;28;20236;-71
2022/06/09 05:35:38;;;;;;;3.53;1.40;;;17.80;99.90;;;;;;5035820;28;20239;-69
2022/06/09 05:46:16;;;;;;;4.82;1.35;;;17.90;99.90;;;;;;5035553;28;20159;-72
2022/06/09 05:48:43;;;;;;;1.95;1.40;;;18.00;99.90;;;;;;5035437;28;20645;-70
2022/06/09 05:51:10;;;;;;;1.55;1.45;;;17.90;99.90;;;;;;5035724;28;20296;-71
2022/06/09 05:53:36;;;;;;;4.30;2.08;;;18.00;99.90;;;;;;5034687;28;20184;-71
2022/06/09 05:56:05;;;;;;;1.58;1.35;;;17.90;99.90;;;;;;5035738;28;20172;-70
2022/06/09 05:58:32;;;;;;;2.80;1.20;;;17.90;99.90;;;;;;5035118;28;20161;-70
2022/06/09 06:00:59;;;;;;;7.95;1.70;;;17.90;99.90;;;;;;5035185;28;20184;-71
2022/06/09 06:03:25;;;;;;;5.00;1.30;;;17.90;99.90;;;;;;5034683;28;20231;-72
2022/06/09 06:08:35;;;;;;;3.03;1.48;;;18.00;99.90;;;;;;5035144;28;20152;-71
2022/06/09 06:11:01;;;;;;;2.38;1.17;;;18.00;99.90;;;;;;5035262;28;20204;-70
2022/06/09 06:13:26;;;;;;;4.35;1.48;;;18.00;99.90;;;;;;5035115;28;20171;-74
2022/06/09 06:15:52;;;;;;;4.90;1.30;;;17.90;99.90;;;;;;5035345;28;20169;-71
2022/06/09 06:18:18;;;;;;;3.58;1.23;;;17.90;99.90;;;;;;5035225;28;20153;-71
2022/06/09 06:20:44;;;;;;;2.75;1.77;;;17.90;99.90;;;;;;5034895;28;20176;-71
2022/06/09 06:23:09;;;;;;;2.03;1.40;;;18.00;99.90;;;;;;5035053;28;20161;-71
2022/06/09 06:25:35;;;;;;;2.13;1.40;;;18.00;99.90;;;;;;5035151;28;20593;-71
2022/06/09 06:28:01;;;;;;;1.90;1.10;;;18.10;99.90;;;;;;5034935;28;20248;-70
2022/06/09 06:30:27;;;;;;;2.72;1.30;;;18.10;99.90;;;;;;5034903;28;20188;-71
2022/06/09 06:32:52;;;;;;;4.45;1.23;;;18.10;99.90;;;;;;5034723;28;20624;-72
2022/06/09 06:35:18;;;;;;;3.13;1.33;;;18.10;99.90;;;;;;5034799;28;20167;-70
2022/06/09 06:37:43;;;;;;;1.42;1.33;;;18.10;99.90;;;;;;5034407;28;20173;-71
2022/06/09 06:40:10;;;;;;;1.35;1.23;;;18.10;99.90;;;;;;5034397;28;20469;-71
2022/06/09 06:42:36;;;;;;;2.13;1.45;;;17.90;99.90;;;;;;5034922;28;20180;-70
2022/06/09 06:45:03;;;;;;;6.50;1.15;;;17.90;99.90;;;;;;5034860;28;20578;-71
2022/06/09 06:47:29;;;;;;;5.75;1.38;;;17.90;99.90;;;;;;5034145;28;20523;-72
2022/06/09 06:49:55;;;;;;;1.10;1.10;;;17.90;99.90;;;;;;5034216;28;20271;-71
2022/06/09 06:52:21;;;;;;;6.82;1.33;;;17.90;99.90;;;;;;5034718;28;20224;-72
2022/06/09 06:54:47;;;;;;;1.42;1.33;;;17.90;99.90;;;;;;5034910;28;20169;-71
2022/06/09 06:57:13;;;;;;;1.90;1.50;;;18.00;99.90;;;;;;5035614;28;20211;-72
2022/06/09 06:59:38;;;;;;;2.17;1.40;;;17.80;99.90;;;;;;5037825;28;20172;-73
2022/06/09 07:02:04;;;;;;;3.28;1.27;;;17.80;99.90;;;;;;5040912;28;20255;-72
2022/06/09 07:04:30;;;;;;;1.23;1.13;;;17.80;99.90;;;;;;5042840;28;20315;-73
2022/06/09 07:06:56;;;;;;;4.05;1.42;;;17.90;99.90;;;;;;5042675;28;20176;-70
2022/06/09 07:09:22;;;;;;;1.80;1.58;;;18.00;99.90;;;;;;5042350;28;20160;-72
2022/06/09 07:11:48;;;;;;;2.00;1.60;;;18.00;99.90;;;;;;5044231;28;20201;-73
2022/06/09 07:14:14;;;;;;;4.68;1.67;;;18.10;99.90;;;;;;5042322;28;20165;-75
2022/06/09 07:16:40;;;;;;;2.63;1.65;;;18.10;99.90;;;;;;5046359;28;20195;-72
2022/06/09 07:19:05;;;;;;;1.40;1.20;;;18.00;99.90;;;;;;5042771;28;20189;-74
2022/06/09 07:21:32;;;;;;;2.10;1.75;;;17.90;99.90;;;;;;5048550;28;20221;-73
2022/06/09 07:23:58;;;;;;;2.15;1.58;;;18.00;99.90;;;;;;5044260;28;20169;-74
2022/06/09 07:26:24;;;;;;;1.20;1.10;;;18.00;99.90;;;;;;5034496;28;20175;-72
2022/06/09 07:28:49;;;;;;;1.73;1.35;;;18.00;99.90;;;;;;5038190;28;20224;-72
2022/06/09 07:31:15;;;;;;;1.70;1.50;;;17.90;99.90;;;;;;5043723;28;20220;-74
2022/06/09 07:33:41;;;;;;;3.20;1.50;;;18.00;99.90;;;;;;5041245;28;20185;-72
2022/06/09 07:36:19;;;;;;;4.30;1.98;;;18.00;99.90;;;;;;5044521;28;20226;-71
2022/06/09 07:38:45;;;;;;;1.92;1.40;;;17.90;99.90;;;;;;5047101;28;20168;-70
2022/06/09 07:41:11;;;;;;;1.95;1.40;;;18.00;99.90;;;;;;5043279;28;20176;-72
2022/06/09 07:43:37;;;;;;;1.55;1.45;;;18.00;99.90;;;;;;5034347;28;20597;-71
2022/06/09 07:46:02;;;;;;;1.30;1.20;;;17.90;99.90;;;;;;5033736;28;20211;-73
2022/06/09 07:48:28;;;;;;;1.40;1.30;;;17.90;99.90;;;;;;5034302;28;20199;-71
2022/06/09 07:50:54;;;;;;;4.55;1.60;;;17.90;99.90;;;;;;5032273;28;20180;-71
2022/06/09 07:53:21;;;;;;;2.28;1.52;;;17.90;99.90;;;;;;5034940;28;20160;-71
2022/06/09 07:55:48;;;;;;;2.95;1.60;;;17.90;99.90;;;;;;5038042;28;20223;-72
2022/06/09 07:58:14;;;;;;;5.28;1.60;;;17.90;99.90;;;;;;5038366;28;20153;-71
2022/06/09 08:00:40;;;;;;;2.65;1.33;;;17.80;99.90;;;;;;5041235;28;20199;-74
2022/06/09 08:03:06;;;;;;;2.63;1.30;;;17.80;99.90;;;;;;5051434;28;20226;-71
2022/06/09 08:05:33;;;;;;;1.73;1.40;;;17.80;99.90;;;;;;5046975;28;20193;-71
2022/06/09 08:07:59;;;;;;;1.30;1.20;;;17.80;99.90;;;;;;5045502;28;20185;-72
2022/06/09 08:10:27;;;;;;;2.53;1.50;;;17.70;99.90;;;;;;5047811;28;20222;-71
2022/06/09 08:12:56;;;;;;;2.45;1.60;;;17.70;99.90;;;;;;5043396;28;20204;-72
2022/06/09 08:15:24;;;;;;;2.72;1.70;;;17.70;99.90;;;;;;5037957;28;20204;-72
2022/06/09 08:17:51;;;;;;;6.05;2.45;;;17.80;99.90;;;;;;5039888;28;20203;-72
2022/06/09 08:20:17;;;;;;;1.85;1.52;;;17.80;99.90;;;;;;5052247;28;20176;-72
2022/06/09 08:22:43;;;;;;;1.73;1.58;;;17.90;99.90;;;;;;5049810;28;20172;-74
2022/06/09 08:25:15;;;;;;;3.15;1.70;;;17.90;99.90;;;;;;5050769;28;20176;-73
2022/06/09 08:27:42;;;;;;;2.63;2.25;;;17.90;99.90;;;;;;5051400;28;20157;-72
2022/06/09 08:30:10;;;;;;;2.53;1.60;;;18.10;99.90;;;;;;5052640;28;20165;-72
2022/06/09 08:32:36;;;;;;;1.60;1.50;;;18.10;99.90;;;;;;5053493;28;20208;-73
2022/06/09 08:35:03;;;;;;;2.83;1.40;;;18.00;99.90;;;;;;5038666;28;20612;-72
2022/06/09 08:37:28;;;;;;;1.92;1.40;;;18.00;99.90;;;;;;5037179;28;20173;-71
2022/06/09 08:39:54;;;;;;;1.40;1.30;;;17.90;99.90;;;;;;5037175;28;20172;-72
2022/06/09 08:42:31;;;;;;;1.42;1.30;;;17.90;99.90;;;;;;5036967;28;20613;-73
2022/06/09 08:45:08;;;;;;;1.67;1.40;;;18.00;99.90;;;;;;5037057;28;20244;-74
2022/06/09 08:48:02;;;;;;;2.88;1.60;;;18.10;99.90;;;;;;5035838;28;20735;-71
2022/06/09 08:50:32;;;;;;;1.90;1.60;;;17.90;99.90;;;;;;5034923;28;20184;-76
2022/06/09 08:53:01;;;;;;;1.63;1.50;;;17.70;99.90;;;;;;5036832;28;20561;-72
2022/06/09 08:55:38;;;;;;;1.98;1.75;;;17.50;99.90;;;;;;5036793;28;20550;-74
2022/06/09 08:58:42;;;;;;;1.83;1.70;;;17.40;99.90;;;;;;5036855;28;20695;-71
2022/06/09 09:01:10;;;;;;;2.40;2.05;;;17.40;99.90;;;;;;4995125;28;20193;-73
2022/06/09 09:03:40;;;;;;;2.42;2.00;;;17.20;99.90;;;;;;4995159;28;20247;-73
2022/06/09 09:06:27;;;;;;;2.70;2.13;;;17.20;99.90;;;;;;4997683;28;20225;-74
2022/06/09 09:09:06;;;;;;;3.67;2.60;;;17.20;99.90;;;;;;5005277;28;20511;-74
2022/06/09 09:12:09;;;;;;;2.10;1.90;;;17.10;99.90;;;;;;5004441;28;20197;-75
2022/06/09 09:15:02;;;;;;;2.50;2.30;;;17.20;99.90;;;;;;5005889;28;20166;-74
2022/06/09 09:17:41;;;;;;;2.95;2.65;;;17.20;99.90;;;;;;4995814;28;20583;-73
2022/06/09 09:20:24;;;;;;;2.53;2.33;;;17.30;99.90;;;;;;4995192;28;20166;-74
2022/06/09 09:22:55;;;;;;;2.80;2.60;;;17.30;99.90;;;;;;4995792;28;20205;-74
2022/06/09 09:25:39;;;;;;;2.72;2.50;;;17.30;99.90;;;;;;4994976;28;20199;-72
2022/06/09 09:28:13;;;;;;;4.32;2.90;;;17.30;99.90;;;;;;4995358;28;20240;-75
2022/06/09 09:30:59;;;;;;;3.43;2.77;;;17.30;99.90;;;;;;4995219;28;20185;-73
2022/06/09 09:33:25;;;;;;;2.60;2.40;;;17.30;99.90;;;;;;4994903;28;20202;-74
2022/06/09 09:36:05;;;;;;;3.88;2.80;;;17.20;99.90;;;;;;5029683;28;20192;-73
2022/06/09 09:38:39;;;;;;;2.58;2.38;;;17.30;99.90;;;;;;5036444;28;20612;-74
2022/06/09 09:41:05;;;;;;;5.25;2.80;;;17.30;99.90;;;;;;5036696;28;20187;-72
2022/06/09 09:43:40;;;;;;;3.65;3.30;;;17.20;99.90;;;;;;5036969;28;20169;-73
2022/06/09 09:46:20;;;;;;;3.30;3.00;;;17.30;99.90;;;;;;5035918;28;20161;-74
2022/06/09 09:48:47;;;;;;;3.15;2.60;;;17.20;99.90;;;;;;5035977;28;20168;-73
2022/06/09 09:51:13;;;;;;;3.03;2.83;;;17.20;99.90;;;;;;5035540;28;20196;-74
2022/06/09 09:53:53;;;;;;;3.17;2.75;;;17.30;99.90;;;;;;5034801;28;20264;-74
2022/06/09 09:56:19;;;;;;;3.80;2.70;;;17.30;99.90;;;;;;5035276;28;20163;-73
2022/06/09 09:58:47;;;;;;;4.28;3.40;;;17.20;99.90;;;;;;5035322;28;20164;-74
2022/06/09 10:01:22;;;;;;;2.90;2.60;;;17.20;99.90;;;;;;5036072;28;20180;-74
2022/06/09 10:09:38;;;;;;;3.72;3.42;;;17.40;99.90;;;;;;5035308;28;20164;-74
2022/06/09 10:12:08;;;;;;;3.50;2.72;;;17.30;99.90;;;;;;5035679;28;20201;-73
2022/06/09 10:14:52;;;;;;;4.00;3.50;;;17.30;99.90;;;;;;5035830;28;20161;-73
2022/06/09 10:17:29;;;;;;;6.10;3.47;;;17.30;99.90;;;;;;5034381;28;20172;-74
2022/06/09 10:20:05;;;;;;;3.20;2.90;;;17.30;99.90;;;;;;5035683;28;20192;-73
2022/06/09 10:22:34;;;;;;;3.50;3.20;;;17.30;99.90;;;;;;5035200;28;20175;-74
2022/06/09 10:25:24;;;;;;;5.30;3.20;;;17.20;99.90;;;;;;5035173;28;20244;-73
2022/06/09 10:27:58;;;;;;;4.75;3.20;;;17.10;99.90;;;;;;5013739;28;20201;-71
2022/06/09 10:30:35;;;;;;;3.53;3.23;;;17.00;99.90;;;;;;5035224;28;20629;-74
2022/06/09 10:33:25;;;;;;;4.20;3.60;;;16.90;99.90;;;;;;5034621;28;20212;-72
2022/06/09 10:36:00;;;;;;;6.03;3.60;;;16.90;99.90;;;;;;5035337;28;20149;-74
2022/06/09 10:38:43;;;;;;;4.33;3.57;;;16.90;99.90;;;;;;5034835;28;20167;-73
2022/06/09 10:41:27;;;;;;;4.55;3.72;;;16.90;99.90;;;;;;5035247;28;20165;-73
2022/06/09 10:44:22;;;;;;;3.93;3.57;;;17.00;99.90;;;;;;5034674;28;20538;-73
2022/06/09 10:56:09;;;;;;;4.50;4.03;;;16.90;99.90;;;;;;5034622;28;20175;-73
2022/06/09 10:58:42;;;;;;;3.83;3.30;;;16.80;99.90;;;;;;5034970;28;20196;-74
2022/06/09 11:01:19;;;;;;;4.53;3.67;;;16.80;99.90;;;;;;5034038;28;20667;-74
2022/06/09 11:03:48;;;;;;;4.40;3.67;;;16.90;99.90;;;;;;5040653;28;20251;-74
2022/06/09 11:06:53;;;;;;;4.03;3.70;;;16.90;99.90;;;;;;5046877;28;20165;-74
2022/06/09 11:09:45;;;;;;;4.47;3.80;;;16.90;99.90;;;;;;5044680;28;20184;-75
2022/06/09 11:12:37;;;;;;;4.82;3.90;;;16.90;99.90;;;;;;5046789;28;20266;-74
2022/06/09 11:15:49;;;;;;;5.13;4.50;;;17.10;99.90;;;;;;5031977;28;20193;-76
2022/06/09 11:18:43;;;;;;;6.57;4.67;;;17.10;99.90;;;;;;5034102;28;20156;-72
2022/06/09 11:21:36;;;;;;;5.72;4.70;;;17.10;99.90;;;;;;5028921;28;20290;-75
2022/06/09 11:24:23;;;;;;;7.72;4.35;;;17.20;99.90;;;;;;5033390;28;20185;-74
2022/06/09 11:27:04;;;;;;;5.13;4.60;;;17.20;99.90;;;;;;5034431;28;20716;-74
2022/06/09 11:29:46;;;;;;;5.00;4.05;;;17.20;99.90;;;;;;5034237;28;20646;-73
2022/06/09 11:32:28;;;;;;;6.82;4.53;;;17.10;99.90;;;;;;5034096;28;20200;-74
2022/06/09 11:35:36;;;;;;;4.70;4.20;;;17.30;99.90;;;;;;5034318;28;20161;-72
2022/06/09 11:38:04;;;;;;;6.00;4.60;;;17.40;99.90;;;;;;5020297;28;20192;-72
2022/06/09 11:41:04;;;;;;;5.22;4.57;;;17.40;99.90;;;;;;5033726;28;20172;-73
2022/06/09 11:43:56;;;;;;;6.82;4.70;;;17.60;99.90;;;;;;5033798;28;20259;-73
2022/06/09 11:46:26;;;;;;;5.57;4.20;;;17.50;99.90;;;;;;5032451;28;20180;-72
2022/06/09 11:49:00;;;;;;;5.70;4.55;;;17.60;99.90;;;;;;5032664;28;20276;-73
2022/06/09 11:51:28;;;;;;;4.95;4.30;;;17.70;99.90;;;;;;5033423;28;20193;-72
2022/06/09 11:53:57;;;;;;;7.15;4.55;;;17.60;99.90;;;;;;5033624;28;20161;-72
2022/06/09 11:56:43;;;;;;;8.13;4.65;;;17.70;99.90;;;;;;5033496;28;20302;-73
2022/06/09 11:59:11;;;;;;;5.25;4.10;;;17.60;99.90;;;;;;5033252;28;20163;-75
2022/06/09 12:01:40;;;;;;;6.00;4.60;;;17.70;99.90;;;;;;5032073;28;20265;-73
2022/06/09 12:04:06;;;;;;;4.72;4.00;;;17.70;99.90;;;;;;5033955;28;20225;-73
2022/06/09 12:06:37;;;;;;;4.20;3.80;;;17.70;99.90;;;;;;5033329;28;20215;-73
2022/06/09 12:09:03;;;;;;;6.55;3.53;;;17.80;99.90;;;;;;5033247;28;20248;-72
2022/06/09 12:11:58;;;;;;;5.28;4.07;;;17.90;99.90;;;;;;5033160;28;20610;-73
2022/06/09 12:14:33;;;;;;;5.80;3.80;;;18.00;99.90;;;;;;5033765;28;20161;-73
2022/06/09 12:17:19;;;;;;;5.55;4.28;;;18.30;99.90;;;;;;5033413;28;20687;-74
2022/06/09 12:19:55;;;;;;;5.32;3.65;;;18.40;99.90;;;;;;5033538;28;20157;-75
2022/06/09 12:22:39;;;;;;;6.70;3.80;;;18.40;99.90;;;;;;5033281;28;20171;-72
2022/06/09 12:25:07;;;;;;;7.90;4.00;;;18.40;99.90;;;;;;5033518;28;20172;-72
2022/06/09 12:27:42;;;;;;;4.25;3.75;;;18.40;99.90;;;;;;5033245;28;20193;-72
2022/06/09 12:30:26;;;;;;;7.90;4.07;;;18.50;99.90;;;;;;5032312;28;20204;-72
2022/06/09 12:33:11;;;;;;;4.40;3.53;;;18.50;99.90;;;;;;5033410;28;20207;-74
2022/06/09 12:35:56;;;;;;;13.30;5.75;;;18.60;99.90;;;;;;5034008;28;20165;-73
2022/06/09 12:38:30;;;;;;;4.93;4.00;;;18.80;99.90;;;;;;5033439;28;20186;-73
2022/06/09 12:41:08;;;;;;;6.93;4.50;;;18.90;99.90;;;;;;5036989;28;20172;-72
2022/06/09 12:43:40;;;;;;;6.63;4.13;;;18.90;99.90;;;;;;5037440;28;20172;-74
2022/06/09 12:46:23;;;;;;;4.63;3.40;;;19.00;99.90;;;;;;5037310;28;20232;-73
2022/06/09 12:48:51;;;;;;;4.72;4.05;;;18.90;99.90;;;;;;5036815;28;20271;-73
2022/06/09 12:51:29;;;;;;;3.90;3.50;;;18.80;99.90;;;;;;5036332;28;20193;-72
2022/06/09 12:54:07;;;;;;;7.00;4.00;;;18.90;99.90;;;;;;5036872;28;20173;-73
2022/06/09 12:56:45;;;;;;;5.38;3.92;;;18.90;99.90;;;;;;5036889;28;20165;-72
2022/06/09 12:59:32;;;;;;;4.45;3.38;;;19.00;99.90;;;;;;5036669;28;20170;-72
2022/06/09 13:02:00;;;;;;;4.18;3.50;;;19.00;99.90;;;;;;5036740;28;20250;-73
2022/06/09 13:04:27;;;;;;;5.05;3.47;;;19.10;99.90;;;;;;5036438;28;20286;-72
2022/06/09 13:06:56;;;;;;;3.97;3.50;;;19.10;99.90;;;;;;5035689;28;20200;-73
2022/06/09 13:09:31;;;;;;;3.95;3.55;;;19.20;99.90;;;;;;5036722;28;20173;-73
2022/06/09 13:14:48;;;;;;;6.93;4.65;;;19.20;99.90;;;;;;5031838;28;20196;-75
2022/06/09 13:17:18;;;;;;;7.07;3.80;;;19.10;99.90;;;;;;5025065;28;20162;-72
2022/06/09 13:19:57;;;;;;;7.38;3.88;;;19.10;99.90;;;;;;5027743;28;20248;-73
2022/06/09 13:22:24;;;;;;;4.55;3.50;;;19.20;99.90;;;;;;5017304;28;20166;-73
2022/06/09 13:24:50;;;;;;;6.10;3.47;;;19.30;99.90;;;;;;5016361;28;20172;-72
2022/06/09 13:27:20;;;;;;;4.88;3.40;;;19.40;99.90;;;;;;5015568;28;20185;-72
2022/06/09 13:30:01;;;;;;;6.80;3.85;;;19.40;99.90;;;;;;5016695;28;20165;-73
2022/06/09 13:32:42;;;;;;;7.20;3.38;;;19.30;99.90;;;;;;5016074;28;20201;-72
2022/06/09 13:35:43;;;;;;;9.15;5.45;;;19.40;99.90;;;;;;5016192;28;20781;-73
2022/06/09 13:38:23;;;;;;;4.43;3.72;;;19.60;99.90;;;;;;5016373;28;20168;-73